Archbold, OH

9:08 AM EST on December 22, 2014 (GMT -0500)
3 Miles ESE Archbold, OH | Change Station
CLOSE
Current Station
Personal Weather Station
Location: Archbold, OH
Elevation: 741 ft
Nearby Weather Stations

Elev 741 ft 41.49 °N, 84.26 °W | Updated 8 seconds ago

Partly Cloudy
Partly Cloudy
27.5 °F
Feels Like 22 °F
N
4.7
Wind Variable Wind from ENE
Gusts 68.0 mph

Today
High -- | Low -- °F
--% Chance of Precip.
Yesterday
High -- | Low -- °F
Precip. -- in
8:00 AM 5:10 PM
New Moon, 0% visible
Pressure 30.05 in
Visibility 3.0 miles
Clouds Clear
Windchill 22 °F
Dew Point 24 °F
Humidity 87%
Rainfall 0.00 in
Snow Depth Not available.
UV 0.0 out of 12
Pollen .10 out of 12
Air Quality Not available.
Flu Activity Not available.
METAR KUSE 221355Z AUTO 08005KT 3SM BR CLR M04/M05 A3005 RMK AO2

More Conditions Fewer Conditions

Pressure 30.05 in
Visibility 3.0 miles
Clouds Clear
Windchill 22 °F
Dew Point 24 °F
Humidity 87%
Rainfall 0.00 in
Snow Depth Not available.
UV 0.0 out of 12
Pollen .10 out of 12
Air Quality Not available.
Flu Activity Not available.
METAR KUSE 221355Z AUTO 08005KT 3SM BR CLR M04/M05 A3005 RMK AO2

More Conditions Fewer Conditions

10-Day Weather Forecast

Almanac

Astronomy

Dec. 22, 2014 Rise Set
Actual Time
Civil Twilight
Nautical Twilight
Astronomical Twilight
Moon
Length of Visible Light
Length of Day
Tomorrow will be .
, % of the Moon is Illuminated

Today's Extremes

State Highs State Lows

Community

WunderPhotos

Upload Photos

1,779,602 photos uploaded!

WunderBlogs® & News

Nearby

Air Quality

  Air Quality AQ Index Pollutant
Not available.

Snow Depth

Station Depth Elevation

Earthquake Activity

City Distance Mag. Time & Date
Minimum magnitude displayed is 2.5.

Coastal Water Temperatures

Place Temperature

Nearby Weather Stations